Time;durP1;ratioP1;P1;durP2;ratioP2;P2;SDS_P1;SDS_P2;PMS_P1;PMS_P2;Temp;Humidity;BMP_temperature;BMP_pressure;BME280_temperature;BME280_humidity;BME280_pressure;Samples;Min_cycle;Max_cycle;Signal;HPM_P1;HPM_P2
2023/11/10 00:01:11;;;;;;;564.67;542.57;;;7.50;99.90;;;;;;5013926;28;20449;-76
2023/11/10 00:03:39;;;;;;;563.20;541.40;;;7.50;99.90;;;;;;5013592;28;20553;-76
2023/11/10 00:06:06;;;;;;;589.77;566.67;;;7.50;99.90;;;;;;5013693;28;20468;-76
2023/11/10 00:08:32;;;;;;;616.60;591.97;;;7.50;99.90;;;;;;5013630;28;20453;-76
2023/11/10 00:10:59;;;;;;;643.60;617.23;;;7.50;99.90;;;;;;5013758;28;20515;-76
2023/11/10 00:13:26;;;;;;;672.07;643.77;;;7.50;99.90;;;;;;5013588;28;20236;-76
2023/11/10 00:15:52;;;;;;;603.50;579.63;;;7.40;99.90;;;;;;5013451;28;20459;-76
2023/11/10 00:18:19;;;;;;;578.33;555.53;;;7.50;99.90;;;;;;5012851;28;20457;-76
2023/11/10 00:20:47;;;;;;;570.37;548.40;;;7.50;99.90;;;;;;5013861;28;20449;-76
2023/11/10 00:23:14;;;;;;;514.87;495.83;;;7.50;99.90;;;;;;5013557;28;20460;-76
2023/11/10 00:25:41;;;;;;;510.57;491.90;;;7.50;99.90;;;;;;5013525;28;20457;-76
2023/11/10 00:28:08;;;;;;;510.10;491.40;;;7.60;99.90;;;;;;5013175;28;21018;-76
2023/11/10 00:30:36;;;;;;;530.37;510.77;;;7.60;99.90;;;;;;5013199;28;20485;-76
2023/11/10 00:33:03;;;;;;;536.30;516.40;;;7.60;99.90;;;;;;5013375;28;20556;-76
2023/11/10 00:35:30;;;;;;;550.40;529.30;;;7.60;99.90;;;;;;5013311;28;20818;-76
2023/11/10 00:37:58;;;;;;;601.17;577.93;;;7.70;99.90;;;;;;5013131;28;20455;-76
2023/11/10 00:40:25;;;;;;;602.10;578.23;;;7.70;99.90;;;;;;5013237;28;20458;-76
2023/11/10 00:42:51;;;;;;;576.53;554.13;;;7.70;99.90;;;;;;5013145;28;20458;-77
2023/11/10 00:45:18;;;;;;;587.43;564.47;;;7.70;99.90;;;;;;5012946;28;20458;-76
2023/11/10 00:47:45;;;;;;;613.57;589.27;;;7.80;99.90;;;;;;5012835;28;21018;-76
2023/11/10 00:50:12;;;;;;;623.67;598.77;;;7.70;99.90;;;;;;5013072;28;20503;-76
2023/11/10 00:52:39;;;;;;;565.23;543.63;;;7.80;99.90;;;;;;5013021;28;20524;-76
2023/11/10 00:55:10;;;;;;;434.30;419.03;;;7.80;99.90;;;;;;5012889;28;20456;-76
2023/11/10 00:57:37;;;;;;;466.90;450.30;;;7.80;99.90;;;;;;5012624;28;20558;-76
2023/11/10 01:00:05;;;;;;;296.23;286.70;;;7.90;99.90;;;;;;5013065;28;20467;-76
2023/11/10 01:02:31;;;;;;;306.97;297.07;;;8.00;99.90;;;;;;5012796;28;20449;-76
2023/11/10 01:04:58;;;;;;;298.20;288.93;;;8.00;99.90;;;;;;5012675;28;20564;-78
2023/11/10 01:07:25;;;;;;;317.37;307.27;;;8.00;99.90;;;;;;5013091;28;20463;-76
2023/11/10 01:09:52;;;;;;;252.13;244.27;;;7.90;99.90;;;;;;5012667;28;20504;-76
2023/11/10 01:12:20;;;;;;;263.93;255.33;;;7.90;99.90;;;;;;5012553;28;20460;-76
2023/11/10 01:14:47;;;;;;;292.80;284.00;;;7.80;99.90;;;;;;5012457;28;20948;-76
2023/11/10 01:17:14;;;;;;;332.17;322.00;;;7.70;99.90;;;;;;5012555;28;20536;-76
2023/11/10 01:19:42;;;;;;;347.73;336.90;;;7.60;99.90;;;;;;5012597;28;20557;-76
2023/11/10 01:22:09;;;;;;;310.97;301.23;;;7.50;99.90;;;;;;5012473;28;20485;-76
2023/11/10 01:24:36;;;;;;;299.90;290.57;;;7.60;99.90;;;;;;5012476;28;20457;-76
2023/11/10 01:27:02;;;;;;;292.57;282.97;;;7.60;99.90;;;;;;5012340;28;20475;-76
2023/11/10 01:29:31;;;;;;;260.77;252.83;;;7.70;99.90;;;;;;5012426;28;20483;-76
2023/11/10 01:31:59;;;;;;;210.13;202.93;;;7.80;99.90;;;;;;5012564;28;20816;-76
2023/11/10 01:34:26;;;;;;;238.10;230.27;;;7.90;99.90;;;;;;5012405;28;20456;-76
2023/11/10 01:36:53;;;;;;;223.70;216.40;;;7.90;99.90;;;;;;5012461;28;20560;-76
2023/11/10 01:39:20;;;;;;;326.40;316.13;;;7.90;99.90;;;;;;5012035;28;20449;-76
2023/11/10 01:41:47;;;;;;;344.47;333.33;;;7.80;99.90;;;;;;5012519;28;20496;-76
2023/11/10 01:44:13;;;;;;;350.97;339.87;;;7.70;99.90;;;;;;5012406;28;20449;-76
2023/11/10 01:46:47;;;;;;;383.93;371.07;;;7.70;99.90;;;;;;5012303;28;20449;-76
2023/11/10 01:49:15;;;;;;;402.20;388.80;;;7.60;99.90;;;;;;5012068;28;20457;-76
2023/11/10 01:51:43;;;;;;;448.40;432.50;;;7.60;99.90;;;;;;5012275;28;20471;-76
2023/11/10 01:54:13;;;;;;;403.90;390.37;;;7.60;99.90;;;;;;5012401;28;20457;-76
2023/11/10 01:56:40;;;;;;;395.03;382.07;;;7.60;99.90;;;;;;5012533;28;20450;-76
2023/11/10 01:59:13;;;;;;;412.03;397.90;;;7.50;99.90;;;;;;5012327;28;20457;-76
2023/11/10 02:01:40;;;;;;;447.30;431.80;;;7.50;99.90;;;;;;5012292;28;20457;-76
2023/11/10 02:04:09;;;;;;;489.37;471.00;;;7.50;99.90;;;;;;5012141;28;20453;-76
2023/11/10 02:06:36;;;;;;;518.90;499.43;;;7.40;99.90;;;;;;5011964;28;20460;-76
2023/11/10 02:09:03;;;;;;;576.87;554.27;;;7.30;99.90;;;;;;5012093;28;20459;-76
2023/11/10 02:11:31;;;;;;;541.43;520.27;;;7.30;99.90;;;;;;5012205;28;20449;-76
2023/11/10 02:14:02;;;;;;;553.30;531.60;;;7.20;99.90;;;;;;5012032;28;20449;-76
2023/11/10 02:16:29;;;;;;;592.07;568.43;;;7.30;99.90;;;;;;5012314;28;20457;-76
2023/11/10 02:18:56;;;;;;;583.53;560.23;;;7.20;99.90;;;;;;5011725;28;20951;-76
2023/11/10 02:21:25;;;;;;;557.27;535.37;;;7.20;99.90;;;;;;5012253;28;20456;-76
2023/11/10 02:23:55;;;;;;;541.27;519.93;;;7.30;99.90;;;;;;5012047;28;20456;-76
2023/11/10 02:26:24;;;;;;;484.70;467.00;;;7.40;99.90;;;;;;5012229;28;20559;-76
2023/11/10 02:28:51;;;;;;;429.40;414.40;;;7.40;99.90;;;;;;5011681;28;20453;-76
2023/11/10 02:31:18;;;;;;;339.60;328.73;;;7.40;99.90;;;;;;5011738;28;21001;-76
2023/11/10 02:33:44;;;;;;;238.10;230.40;;;7.50;99.90;;;;;;5011728;28;20451;-76
2023/11/10 02:36:11;;;;;;;107.30;103.57;;;7.60;99.90;;;;;;5012079;28;20449;-76
2023/11/10 02:38:38;;;;;;;101.77;98.27;;;7.70;99.90;;;;;;5011972;28;20775;-76
2023/11/10 02:41:05;;;;;;;123.67;119.53;;;7.70;99.90;;;;;;5014323;28;20495;-76
2023/11/10 02:43:35;;;;;;;128.07;123.67;;;7.70;99.90;;;;;;5015132;28;20535;-76
2023/11/10 02:46:02;;;;;;;136.37;131.57;;;7.80;99.90;;;;;;5015157;28;20452;-77
2023/11/10 02:48:29;;;;;;;80.67;77.13;;;7.80;99.90;;;;;;5015077;28;20457;-77
2023/11/10 02:50:56;;;;;;;86.70;83.63;;;7.90;99.90;;;;;;5015220;28;20996;-76
2023/11/10 02:53:23;;;;;;;99.37;95.67;;;7.90;99.90;;;;;;5015208;28;20451;-77
2023/11/10 02:55:49;;;;;;;107.23;103.53;;;7.90;99.90;;;;;;5015225;28;20807;-76
2023/11/10 02:58:16;;;;;;;127.40;123.20;;;7.90;99.90;;;;;;5014888;28;20490;-76
2023/11/10 03:00:45;;;;;;;98.73;94.70;;;8.00;99.90;;;;;;5015155;28;20540;-76
2023/11/10 03:03:12;;;;;;;121.27;117.17;;;8.00;99.90;;;;;;5015136;28;20537;-76
2023/11/10 03:05:39;;;;;;;157.40;152.27;;;8.00;99.90;;;;;;5014850;28;20890;-76
2023/11/10 03:08:07;;;;;;;174.97;169.17;;;8.00;99.90;;;;;;5014827;28;20513;-76
2023/11/10 03:10:34;;;;;;;191.07;184.97;;;7.90;99.90;;;;;;5014913;28;21031;-76
2023/11/10 03:13:01;;;;;;;203.13;196.63;;;8.00;99.90;;;;;;5014662;28;20539;-76
2023/11/10 03:15:28;;;;;;;236.73;229.13;;;7.90;99.90;;;;;;5014857;28;20480;-76
2023/11/10 03:17:56;;;;;;;233.30;225.97;;;7.90;99.90;;;;;;5014396;28;20456;-76
2023/11/10 03:20:24;;;;;;;236.30;228.77;;;7.90;99.90;;;;;;5014805;28;20961;-76
2023/11/10 03:22:51;;;;;;;238.57;231.17;;;7.90;99.90;;;;;;5014632;28;20462;-76
2023/11/10 03:25:18;;;;;;;160.73;154.90;;;7.90;99.90;;;;;;5014521;28;20959;-76
2023/11/10 03:27:45;;;;;;;133.40;128.77;;;7.90;99.90;;;;;;5013772;28;20474;-76
2023/11/10 03:30:12;;;;;;;101.93;97.23;;;7.90;99.90;;;;;;5014579;28;20868;-76
2023/11/10 03:32:39;;;;;;;107.50;103.70;;;8.00;99.90;;;;;;5014433;28;20448;-76
2023/11/10 03:35:08;;;;;;;71.53;68.13;;;8.00;99.90;;;;;;5014240;28;20452;-76
2023/11/10 03:37:35;;;;;;;46.27;44.40;;;8.00;99.90;;;;;;5014117;28;20986;-76
2023/11/10 03:40:02;;;;;;;40.13;38.33;;;8.10;99.90;;;;;;5014289;28;20454;-76
2023/11/10 03:42:30;;;;;;;36.33;34.13;;;8.10;99.90;;;;;;5014115;28;20539;-76
2023/11/10 03:44:57;;;;;;;21.10;19.70;;;8.20;99.90;;;;;;5014212;28;20462;-76
2023/11/10 03:47:24;;;;;;;24.27;22.47;;;8.20;99.90;;;;;;5014054;28;20844;-76
2023/11/10 03:49:51;;;;;;;20.20;18.97;;;8.30;99.90;;;;;;5013786;28;20459;-76
2023/11/10 03:52:19;;;;;;;14.83;13.83;;;8.30;99.90;;;;;;5013466;28;20456;-76
2023/11/10 03:54:46;;;;;;;18.00;16.53;;;8.30;99.90;;;;;;5013884;28;20817;-76
2023/11/10 03:57:13;;;;;;;22.40;21.10;;;8.30;99.90;;;;;;5014292;28;20489;-77
2023/11/10 03:59:39;;;;;;;39.13;37.47;;;8.30;99.90;;;;;;5014072;28;20460;-76
2023/11/10 04:02:07;;;;;;;60.60;57.97;;;8.20;99.90;;;;;;5013848;28;20449;-76
2023/11/10 04:04:34;;;;;;;57.00;54.07;;;8.10;99.90;;;;;;5013788;28;20948;-76
2023/11/10 04:07:03;;;;;;;57.53;55.27;;;8.10;99.90;;;;;;5013675;28;20556;-77
2023/11/10 04:09:32;;;;;;;78.27;74.60;;;8.10;99.90;;;;;;5013556;28;20821;-77
2023/11/10 04:11:59;;;;;;;84.97;81.77;;;8.00;99.90;;;;;;5013766;28;20525;-77
2023/11/10 04:14:26;;;;;;;86.83;83.43;;;8.00;99.90;;;;;;5013638;28;20455;-76
2023/11/10 04:16:53;;;;;;;105.23;101.40;;;8.00;99.90;;;;;;5013763;28;20484;-76
2023/11/10 04:19:20;;;;;;;107.50;103.57;;;8.00;99.90;;;;;;5013468;28;20452;-76
2023/11/10 04:21:46;;;;;;;89.40;86.07;;;8.00;99.90;;;;;;5013484;28;20827;-77
2023/11/10 04:24:13;;;;;;;104.23;100.33;;;8.10;99.90;;;;;;5013618;28;20461;-76
2023/11/10 04:26:42;;;;;;;87.73;84.43;;;8.10;99.90;;;;;;5013760;28;20455;-77
2023/11/10 04:29:10;;;;;;;57.93;55.50;;;8.10;99.90;;;;;;5013188;28;20952;-76
2023/11/10 04:31:38;;;;;;;57.47;55.33;;;8.00;99.90;;;;;;5013300;28;20477;-76
2023/11/10 04:34:05;;;;;;;51.17;48.60;;;8.00;99.90;;;;;;5013212;28;20520;-76
2023/11/10 04:36:32;;;;;;;53.87;51.67;;;8.00;99.90;;;;;;5013093;28;20460;-76
2023/11/10 04:38:59;;;;;;;55.60;53.20;;;8.00;99.90;;;;;;5013263;28;20461;-76
2023/11/10 04:41:27;;;;;;;57.03;54.60;;;7.90;99.90;;;;;;5013185;28;20445;-76
2023/11/10 04:43:55;;;;;;;84.00;80.97;;;7.80;99.90;;;;;;5013028;28;20465;-76
2023/11/10 04:46:22;;;;;;;119.17;114.90;;;7.80;99.90;;;;;;5013089;28;20933;-76
2023/11/10 04:48:49;;;;;;;121.53;117.23;;;7.80;99.90;;;;;;5012884;28;20449;-77
2023/11/10 04:51:16;;;;;;;83.77;80.67;;;7.90;99.90;;;;;;5012799;28;20917;-77
2023/11/10 04:53:42;;;;;;;82.77;79.47;;;8.00;99.90;;;;;;5012980;28;20774;-76
2023/11/10 04:56:09;;;;;;;66.17;63.50;;;8.00;99.90;;;;;;5013095;28;20540;-77
2023/11/10 04:58:36;;;;;;;48.00;45.57;;;8.10;99.90;;;;;;5012800;28;20457;-76
2023/11/10 05:01:06;;;;;;;41.83;39.30;;;8.00;99.90;;;;;;5012891;28;20457;-76
2023/11/10 05:03:33;;;;;;;55.13;52.77;;;8.00;99.90;;;;;;5012256;28;20460;-76
2023/11/10 05:06:01;;;;;;;70.90;68.00;;;7.90;99.90;;;;;;5012638;28;20468;-76
2023/11/10 05:08:28;;;;;;;90.43;86.80;;;7.90;99.90;;;;;;5012340;28;20457;-76
2023/11/10 05:10:55;;;;;;;101.13;97.40;;;7.80;99.90;;;;;;5012780;28;20481;-76
2023/11/10 05:13:21;;;;;;;86.83;83.73;;;7.90;99.90;;;;;;5012752;28;20457;-76
2023/11/10 05:15:48;;;;;;;75.00;71.97;;;7.90;99.90;;;;;;5012679;28;20449;-77
2023/11/10 05:18:16;;;;;;;67.43;64.30;;;8.00;99.90;;;;;;5012360;28;20547;-76
2023/11/10 05:20:43;;;;;;;47.33;45.03;;;8.00;99.90;;;;;;5012739;28;20930;-77
2023/11/10 05:23:10;;;;;;;47.10;44.87;;;8.00;99.90;;;;;;5013171;28;20536;-76
2023/11/10 05:25:37;;;;;;;52.97;50.90;;;7.90;99.90;;;;;;5012892;28;20450;-76
2023/11/10 05:28:04;;;;;;;63.27;60.57;;;7.90;99.90;;;;;;5012450;28;20449;-76
2023/11/10 05:30:31;;;;;;;62.53;60.03;;;7.90;99.90;;;;;;5012546;28;20479;-76
2023/11/10 05:32:58;;;;;;;57.10;54.33;;;7.90;99.90;;;;;;5012521;28;20455;-76
2023/11/10 05:35:27;;;;;;;52.50;50.10;;;8.00;99.90;;;;;;5012700;28;20449;-76
2023/11/10 05:37:53;;;;;;;47.43;44.90;;;8.00;99.90;;;;;;5012508;28;20453;-76
2023/11/10 05:40:21;;;;;;;37.37;35.37;;;8.10;99.90;;;;;;5012393;28;20966;-76
2023/11/10 05:42:48;;;;;;;37.70;36.00;;;8.00;99.90;;;;;;5012440;28;20460;-76
2023/11/10 05:45:15;;;;;;;25.43;24.33;;;8.10;99.90;;;;;;5012142;28;20453;-76
2023/11/10 05:47:41;;;;;;;31.90;30.33;;;8.20;99.90;;;;;;5012366;28;20451;-76
2023/11/10 05:50:10;;;;;;;30.77;29.40;;;8.20;99.90;;;;;;5012421;28;20461;-76
2023/11/10 05:52:38;;;;;;;21.30;20.10;;;8.20;99.90;;;;;;5012276;28;20449;-76
2023/11/10 05:55:05;;;;;;;16.70;15.30;;;8.20;99.90;;;;;;5012312;28;20451;-76
2023/11/10 05:57:33;;;;;;;13.90;13.00;;;8.30;99.90;;;;;;5012128;28;20449;-76
2023/11/10 05:59:59;;;;;;;11.70;10.83;;;8.30;99.90;;;;;;5012136;28;20462;-76
2023/11/10 06:02:26;;;;;;;10.67;9.93;;;8.30;99.90;;;;;;5012239;28;20448;-76
2023/11/10 06:04:53;;;;;;;10.60;7.90;;;8.30;99.90;;;;;;5012114;28;20455;-76
2023/11/10 06:07:20;;;;;;;15.43;8.23;;;8.30;99.90;;;;;;5012047;28;20941;-76
2023/11/10 06:09:49;;;;;;;8.70;7.47;;;8.30;99.90;;;;;;5012187;28;20847;-76
2023/11/10 06:12:17;;;;;;;5.80;4.73;;;8.40;99.90;;;;;;5011965;28;20482;-76
2023/11/10 06:14:43;;;;;;;6.27;5.47;;;8.40;99.90;;;;;;5012688;28;20464;-76
2023/11/10 06:17:11;;;;;;;8.90;5.20;;;8.40;99.90;;;;;;5015700;28;20939;-76
2023/11/10 06:19:38;;;;;;;7.00;5.60;;;8.30;99.90;;;;;;5015765;28;20460;-76
2023/11/10 06:22:05;;;;;;;6.60;5.53;;;8.30;99.90;;;;;;5015665;28;20963;-76
2023/11/10 06:24:32;;;;;;;6.33;5.57;;;8.30;99.90;;;;;;5015712;28;20454;-76
2023/11/10 06:27:00;;;;;;;6.60;6.10;;;8.20;99.90;;;;;;5015764;28;20457;-76
2023/11/10 06:29:27;;;;;;;6.70;6.10;;;8.20;99.90;;;;;;5015785;28;20449;-76
2023/11/10 06:31:54;;;;;;;6.17;5.57;;;8.20;99.90;;;;;;5015685;28;20477;-76
2023/11/10 06:34:22;;;;;;;7.17;6.43;;;8.20;99.90;;;;;;5015579;28;20456;-76
2023/11/10 06:36:50;;;;;;;8.00;7.20;;;8.20;99.90;;;;;;5015762;28;20455;-76
2023/11/10 06:39:17;;;;;;;10.53;6.90;;;8.20;99.90;;;;;;5015213;28;20538;-76
2023/11/10 06:41:43;;;;;;;7.33;6.07;;;8.20;99.90;;;;;;5015334;28;20452;-76
2023/11/10 06:44:16;;;;;;;7.73;7.03;;;8.10;99.90;;;;;;5015490;28;20519;-76
2023/11/10 06:46:43;;;;;;;13.70;7.40;;;8.20;99.90;;;;;;5015341;28;20455;-76
2023/11/10 06:49:10;;;;;;;9.47;8.50;;;8.20;99.90;;;;;;5015067;28;20458;-76
2023/11/10 06:51:36;;;;;;;11.30;10.60;;;8.30;99.90;;;;;;5015187;28;20481;-76
2023/11/10 06:54:03;;;;;;;7.67;5.90;;;8.30;99.90;;;;;;5014889;28;20544;-76
2023/11/10 06:56:31;;;;;;;6.43;4.13;;;8.30;99.90;;;;;;5015008;28;20820;-76
2023/11/10 06:58:58;;;;;;;6.07;4.00;;;8.30;99.90;;;;;;5015074;28;20454;-76
2023/11/10 07:01:27;;;;;;;5.73;3.80;;;8.40;99.90;;;;;;5015332;28;20454;-76
2023/11/10 07:03:54;;;;;;;8.13;3.97;;;8.40;99.90;;;;;;5014876;28;20456;-76
2023/11/10 07:06:22;;;;;;;10.03;4.07;;;8.40;99.90;;;;;;5014953;28;20461;-76
2023/11/10 07:08:49;;;;;;;6.20;4.17;;;8.40;99.90;;;;;;5014704;28;20528;-76
2023/11/10 07:11:16;;;;;;;8.60;3.40;;;8.40;99.90;;;;;;5014860;28;20569;-76
2023/11/10 07:13:43;;;;;;;5.50;3.20;;;8.40;99.90;;;;;;5014784;28;20454;-76
2023/11/10 07:16:10;;;;;;;6.17;3.87;;;8.40;99.90;;;;;;5014609;28;20457;-76
2023/11/10 07:18:38;;;;;;;5.20;3.40;;;8.40;99.90;;;;;;5014610;28;20464;-76
2023/11/10 07:21:06;;;;;;;6.67;4.57;;;8.40;99.90;;;;;;5014592;28;20462;-76
2023/11/10 07:23:33;;;;;;;8.73;3.50;;;8.40;99.90;;;;;;5014765;28;20457;-76
2023/11/10 07:26:00;;;;;;;7.90;3.50;;;8.40;99.90;;;;;;5014468;28;20480;-76
2023/11/10 07:28:28;;;;;;;5.40;3.90;;;8.40;99.90;;;;;;5014380;28;20455;-75
2023/11/10 07:30:55;;;;;;;7.67;4.30;;;8.50;99.90;;;;;;5014577;28;20790;-75
2023/11/10 07:33:21;;;;;;;13.63;5.73;;;8.50;99.90;;;;;;5014434;28;20447;-76
2023/11/10 07:35:49;;;;;;;7.70;3.20;;;8.40;99.90;;;;;;5014284;28;20460;-75
2023/11/10 07:38:16;;;;;;;5.73;2.53;;;8.40;99.90;;;;;;5014385;28;20458;-75
2023/11/10 07:40:44;;;;;;;5.00;2.43;;;8.50;99.90;;;;;;5014405;28;20496;-75
2023/11/10 07:43:11;;;;;;;7.00;2.90;;;8.50;99.90;;;;;;5012880;28;20881;-75
2023/11/10 07:45:38;;;;;;;7.50;3.20;;;8.60;99.90;;;;;;5013869;28;20502;-75
2023/11/10 07:48:06;;;;;;;4.80;2.90;;;8.70;99.90;;;;;;5013780;28;20457;-75
2023/11/10 07:50:32;;;;;;;7.73;2.80;;;8.80;99.90;;;;;;5014056;28;20452;-75
2023/11/10 07:53:00;;;;;;;3.90;2.73;;;8.70;99.90;;;;;;5013622;28;20477;-75
2023/11/10 07:55:28;;;;;;;7.93;3.03;;;8.60;99.90;;;;;;5013615;28;20492;-74
2023/11/10 07:57:54;;;;;;;6.00;3.10;;;8.60;99.90;;;;;;5013471;28;20456;-74
2023/11/10 08:00:22;;;;;;;6.87;5.07;;;8.60;99.90;;;;;;5013595;28;20465;-74
2023/11/10 08:02:51;;;;;;;6.70;3.17;;;8.60;99.90;;;;;;5013355;28;20484;-74
2023/11/10 08:05:19;;;;;;;7.00;3.77;;;8.70;99.90;;;;;;5013458;28;21065;-74
2023/11/10 08:07:46;;;;;;;8.10;3.30;;;8.70;99.90;;;;;;5012772;28;20455;-74
2023/11/10 08:10:16;;;;;;;5.70;3.00;;;8.80;99.90;;;;;;5013938;28;20862;-74
2023/11/10 08:12:43;;;;;;;8.03;3.63;;;8.90;99.90;;;;;;5013232;28;20256;-75
2023/11/10 08:15:10;;;;;;;6.23;2.90;;;9.00;99.90;;;;;;5013071;28;20454;-75
2023/11/10 08:17:37;;;;;;;5.23;2.20;;;9.00;99.90;;;;;;5013807;28;20454;-74
2023/11/10 08:20:05;;;;;;;5.53;2.50;;;9.10;99.90;;;;;;5013281;28;20453;-74
2023/11/10 08:22:32;;;;;;;6.93;2.20;;;9.10;99.90;;;;;;5013501;28;20973;-74
2023/11/10 08:24:59;;;;;;;6.83;2.23;;;9.20;99.90;;;;;;5013418;28;20450;-74
2023/11/10 08:27:28;;;;;;;5.37;2.07;;;9.30;99.90;;;;;;5013430;28;20460;-74
2023/11/10 08:29:55;;;;;;;6.37;2.60;;;9.40;99.90;;;;;;5013293;28;20819;-74
2023/11/10 08:32:22;;;;;;;10.53;2.27;;;9.50;99.90;;;;;;5013485;28;20483;-74
2023/11/10 08:34:49;;;;;;;9.00;1.90;;;9.50;99.90;;;;;;5013501;28;20452;-74
2023/11/10 08:37:16;;;;;;;5.03;1.77;;;9.50;99.90;;;;;;5013065;28;20453;-74
2023/11/10 08:39:42;;;;;;;5.70;1.80;;;9.50;99.90;;;;;;5012959;28;20459;-73
2023/11/10 08:42:09;;;;;;;7.17;1.53;;;9.50;99.90;;;;;;5013163;28;20542;-74
2023/11/10 08:44:38;;;;;;;10.37;1.93;;;9.60;99.90;;;;;;5013021;28;20456;-74
2023/11/10 08:47:05;;;;;;;6.83;2.20;;;9.50;99.90;;;;;;5013191;28;20455;-74
2023/11/10 08:49:31;;;;;;;5.60;1.43;;;9.40;99.90;;;;;;5013052;28;20453;-74
2023/11/10 08:51:59;;;;;;;8.07;1.40;;;9.30;99.90;;;;;;5012966;28;20486;-73
2023/11/10 08:54:26;;;;;;;5.20;1.90;;;9.40;99.90;;;;;;5013014;28;20482;-73
2023/11/10 08:56:52;;;;;;;8.97;2.03;;;9.40;99.90;;;;;;5012784;28;20451;-73
2023/11/10 08:59:20;;;;;;;7.63;1.70;;;9.50;99.90;;;;;;5012981;28;20967;-73
2023/11/10 09:01:51;;;;;;;11.17;2.27;;;9.60;99.90;;;;;;5012938;28;20461;-73
2023/11/10 09:04:19;;;;;;;7.63;1.63;;;9.60;99.90;;;;;;5013362;28;20455;-73
2023/11/10 09:06:46;;;;;;;6.00;1.70;;;9.70;99.90;;;;;;5012737;28;20467;-73
2023/11/10 09:09:14;;;;;;;5.93;1.27;;;9.70;98.20;;;;;;5012890;28;20482;-73
2023/11/10 09:11:40;;;;;;;5.40;1.73;;;9.90;98.00;;;;;;5012789;28;20478;-73
2023/11/10 09:14:07;;;;;;;6.93;1.37;;;9.90;98.00;;;;;;5012604;28;20936;-73
2023/11/10 09:16:34;;;;;;;7.70;1.80;;;10.00;97.60;;;;;;5012974;28;20462;-72
2023/11/10 09:19:03;;;;;;;3.77;1.30;;;10.20;97.70;;;;;;5012637;28;20904;-72
2023/11/10 09:21:30;;;;;;;4.73;1.47;;;10.20;97.60;;;;;;5012560;28;20958;-73
2023/11/10 09:23:57;;;;;;;6.60;1.70;;;10.10;95.20;;;;;;5012379;28;20449;-73
2023/11/10 09:26:24;;;;;;;9.50;2.10;;;10.20;97.60;;;;;;5012538;28;20949;-73
2023/11/10 09:28:51;;;;;;;6.73;1.80;;;10.30;95.50;;;;;;5012474;28;20452;-73
2023/11/10 09:31:18;;;;;;;5.27;1.50;;;10.50;94.50;;;;;;5012652;28;20804;-72
2023/11/10 09:33:45;;;;;;;8.70;1.73;;;10.60;94.60;;;;;;5012431;28;20483;-73
2023/11/10 09:36:13;;;;;;;5.20;1.13;;;10.70;92.00;;;;;;5012547;28;20454;-73
2023/11/10 09:38:40;;;;;;;8.00;1.67;;;10.60;77.50;;;;;;5012203;28;20457;-73
2023/11/10 09:41:14;;;;;;;6.27;1.70;;;10.60;82.30;;;;;;5012740;28;20561;-73
2023/11/10 09:43:41;;;;;;;6.13;1.63;;;10.70;83.30;;;;;;5012525;28;20602;-73
2023/11/10 09:46:10;;;;;;;7.43;2.00;;;10.80;83.80;;;;;;5012880;28;20456;-73
2023/11/10 09:48:38;;;;;;;13.10;2.70;;;10.60;85.00;;;;;;5012388;28;20455;-73
2023/11/10 09:51:06;;;;;;;9.00;3.00;;;10.70;81.90;;;;;;5016444;28;20656;-73
2023/11/10 09:53:35;;;;;;;5.33;1.33;;;10.70;84.70;;;;;;5016537;28;20850;-73
2023/11/10 09:56:02;;;;;;;10.30;1.97;;;10.70;77.60;;;;;;5016312;28;20456;-73
2023/11/10 09:58:30;;;;;;;5.70;1.90;;;10.60;77.50;;;;;;5016162;28;20460;-73
2023/11/10 10:00:57;;;;;;;9.37;2.17;;;10.70;80.50;;;;;;5016455;28;20459;-73
2023/11/10 10:03:24;;;;;;;11.27;2.07;;;10.60;77.40;;;;;;5016097;28;20449;-73
2023/11/10 10:05:51;;;;;;;5.50;1.50;;;10.60;79.10;;;;;;5016004;28;20462;-73
2023/11/10 10:08:19;;;;;;;5.00;1.60;;;10.50;77.40;;;;;;5016186;28;20477;-73
2023/11/10 10:10:50;;;;;;;7.90;1.97;;;10.50;80.60;;;;;;5016681;28;20588;-73
2023/11/10 10:13:17;;;;;;;7.03;1.60;;;10.60;78.20;;;;;;5016363;28;20879;-73
2023/11/10 10:15:43;;;;;;;9.77;1.60;;;10.60;77.40;;;;;;5016164;28;20461;-73
2023/11/10 10:18:10;;;;;;;12.40;2.70;;;10.70;77.50;;;;;;5015606;28;20467;-73
2023/11/10 10:20:40;;;;;;;9.10;2.00;;;10.80;81.60;;;;;;5015867;28;20996;-73
2023/11/10 10:23:09;;;;;;;7.60;2.00;;;10.70;77.60;;;;;;5016058;28;20457;-73
2023/11/10 10:25:38;;;;;;;10.30;1.97;;;10.70;77.60;;;;;;5016054;28;20807;-73
2023/11/10 10:28:07;;;;;;;9.83;1.77;;;10.70;81.50;;;;;;5015570;28;20898;-73
2023/11/10 10:30:33;;;;;;;6.33;1.53;;;10.70;77.60;;;;;;5015674;28;20457;-72
2023/11/10 10:33:00;;;;;;;7.23;1.50;;;10.70;77.60;;;;;;5015007;28;20495;-72
2023/11/10 10:35:27;;;;;;;7.83;1.50;;;10.70;77.60;;;;;;5015090;28;20471;-72
2023/11/10 10:38:04;;;;;;;8.63;1.80;;;10.80;77.70;;;;;;5015573;28;20461;-73
2023/11/10 10:40:32;;;;;;;5.70;1.50;;;10.80;77.70;;;;;;5015019;28;20460;-73
2023/11/10 10:42:59;;;;;;;9.20;2.90;;;10.60;77.60;;;;;;5015240;28;20521;-73
2023/11/10 10:45:30;;;;;;;12.57;2.07;;;10.50;77.40;;;;;;5014189;28;20453;-72
2023/11/10 10:47:59;;;;;;;6.83;1.60;;;10.40;77.30;;;;;;5015247;28;20450;-72
2023/11/10 10:50:27;;;;;;;8.97;2.10;;;10.40;77.30;;;;;;5015526;28;20535;-73
2023/11/10 10:52:55;;;;;;;10.13;1.60;;;10.30;77.20;;;;;;5015333;28;20478;-73
2023/11/10 10:55:25;;;;;;;7.67;1.67;;;10.20;77.10;;;;;;5015349;28;20814;-73
2023/11/10 10:57:54;;;;;;;8.03;1.70;;;10.20;79.80;;;;;;5014981;28;20504;-73
2023/11/10 11:00:21;;;;;;;7.60;1.53;;;10.00;80.20;;;;;;5014951;28;20455;-73
2023/11/10 11:02:56;;;;;;;5.20;1.60;;;10.00;80.80;;;;;;5015055;28;20449;-73
2023/11/10 11:05:39;;;;;;;7.50;1.90;;;10.00;79.50;;;;;;5015124;28;20457;-72
2023/11/10 11:08:20;;;;;;;9.27;1.55;;;10.00;80.70;;;;;;5013467;28;20455;-73
2023/11/10 11:11:03;;;;;;;6.90;1.40;;;10.00;77.00;;;;;;5015196;28;20202;-73
2023/11/10 11:13:54;;;;;;;4.20;1.40;;;10.00;80.70;;;;;;5014755;28;20481;-72
2023/11/10 11:16:37;;;;;;;9.53;1.90;;;9.90;79.10;;;;;;5014759;28;20942;-73
2023/11/10 11:19:25;;;;;;;6.37;1.70;;;10.00;84.70;;;;;;5014751;28;20459;-73
2023/11/10 11:21:53;;;;;;;21.27;2.53;;;10.00;84.60;;;;;;5014704;28;20485;-73
2023/11/10 11:24:22;;;;;;;5.30;1.40;;;9.90;85.50;;;;;;5014665;28;20544;-72
2023/11/10 11:26:58;;;;;;;17.53;2.67;;;9.90;85.50;;;;;;5014648;28;20456;-73
2023/11/10 11:29:25;;;;;;;7.77;1.83;;;9.80;85.40;;;;;;5014400;28;20959;-72
2023/11/10 11:31:52;;;;;;;5.23;1.33;;;9.80;86.20;;;;;;5014829;28;20812;-70
2023/11/10 11:34:29;;;;;;;8.20;1.90;;;9.80;85.70;;;;;;5014423;28;20480;-69
2023/11/10 11:36:58;;;;;;;9.60;1.93;;;9.80;91.30;;;;;;5014281;28;20455;-69
2023/11/10 11:39:26;;;;;;;6.23;2.20;;;9.70;91.30;;;;;;5013147;28;20460;-70
2023/11/10 11:41:54;;;;;;;9.10;2.07;;;9.60;91.20;;;;;;5014510;28;20449;-70
2023/11/10 11:44:26;;;;;;;11.03;1.80;;;9.60;93.60;;;;;;5014398;28;20475;-72
2023/11/10 11:46:57;;;;;;;7.38;2.13;;;9.40;97.80;;;;;;5013776;28;20923;-72
2023/11/10 11:49:27;;;;;;;11.07;3.20;;;9.40;97.80;;;;;;5014094;28;20194;-72
2023/11/10 11:51:55;;;;;;;4.40;2.10;;;9.30;99.90;;;;;;5013970;28;20452;-72
2023/11/10 11:54:26;;;;;;;9.47;2.17;;;9.30;99.90;;;;;;5014100;28;20487;-72
2023/11/10 11:56:54;;;;;;;4.30;1.90;;;9.30;99.90;;;;;;5014067;28;20456;-73
2023/11/10 11:59:21;;;;;;;5.53;2.53;;;9.30;99.90;;;;;;5013723;28;20458;-72
2023/11/10 12:15:10;;;;;;;9.47;2.50;;;9.30;99.90;;;;;;6108778;22;1987184;-72
2023/11/10 12:17:38;;;;;;;8.63;2.87;;;9.20;99.90;;;;;;6162530;23;20563;-73
2023/11/10 12:20:08;;;;;;;8.20;2.10;;;9.30;99.90;;;;;;6162934;23;20418;-73
2023/11/10 12:22:35;;;;;;;7.33;1.93;;;9.40;99.90;;;;;;6162978;23;20744;-73
2023/11/10 12:25:03;;;;;;;7.67;1.90;;;9.40;99.90;;;;;;6162702;23;20410;-73
2023/11/10 12:27:33;;;;;;;7.30;1.87;;;9.40;99.90;;;;;;6162524;23;20456;-73
2023/11/10 12:30:00;;;;;;;3.90;1.20;;;9.40;99.90;;;;;;6163172;23;20769;-73
2023/11/10 12:32:30;;;;;;;4.90;1.70;;;9.40;98.50;;;;;;6162918;23;20496;-73
2023/11/10 12:34:57;;;;;;;3.73;1.40;;;9.40;99.90;;;;;;6162602;23;20419;-72
2023/11/10 12:37:25;;;;;;;4.87;1.73;;;9.40;99.90;;;;;;6162724;23;20435;-72
2023/11/10 12:39:52;;;;;;;5.20;1.70;;;9.40;99.90;;;;;;6162814;23;20409;-71
2023/11/10 12:42:20;;;;;;;4.37;1.80;;;9.40;99.90;;;;;;6161218;23;20411;-70
2023/11/10 12:44:56;;;;;;;6.27;1.87;;;9.50;99.90;;;;;;6171469;23;20420;-69
2023/11/10 12:47:32;;;;;;;6.77;2.10;;;9.50;99.90;;;;;;6162763;23;20448;-70
2023/11/10 12:50:01;;;;;;;4.30;1.77;;;9.50;99.90;;;;;;6163004;23;20488;-75
2023/11/10 12:52:28;;;;;;;5.00;2.30;;;9.30;99.90;;;;;;6163010;23;20409;-73
2023/11/10 12:54:55;;;;;;;5.47;2.87;;;9.20;99.90;;;;;;6162348;23;20415;-72